Time;durP1;ratioP1;P1;durP2;ratioP2;P2;SDS_P1;SDS_P2;PMS_P1;PMS_P2;Temp;Humidity;BMP_temperature;BMP_pressure;BME280_temperature;BME280_humidity;BME280_pressure;Samples;Min_cycle;Max_cycle;Signal;HPM_P1;HPM_P2
2021/08/17 00:01:48;;;;;;;11.93;6.38;;;12.50;99.90;;;;;;4996978;28;20092;-69
2021/08/17 00:04:16;;;;;;;15.50;6.13;;;12.50;99.90;;;;;;5042669;28;20108;-68
2021/08/17 00:06:43;;;;;;;10.88;5.50;;;12.40;99.90;;;;;;4991553;28;20046;-68
2021/08/17 00:09:12;;;;;;;12.13;6.10;;;12.40;99.90;;;;;;5011331;28;20131;-68
2021/08/17 00:11:39;;;;;;;10.73;5.18;;;12.40;99.90;;;;;;4998211;28;20046;-68
2021/08/17 00:14:07;;;;;;;13.38;5.25;;;12.30;99.90;;;;;;5010795;28;20108;-69
2021/08/17 00:16:34;;;;;;;10.48;5.32;;;12.30;99.90;;;;;;5011104;28;20133;-68
2021/08/17 00:19:02;;;;;;;11.40;4.70;;;12.30;99.90;;;;;;5014114;28;20053;-68
2021/08/17 00:21:29;;;;;;;10.32;4.80;;;12.30;99.90;;;;;;5008524;28;20042;-69
2021/08/17 00:23:57;;;;;;;11.13;5.20;;;12.30;99.90;;;;;;5015241;28;20549;-68
2021/08/17 00:26:25;;;;;;;11.77;4.88;;;12.30;99.90;;;;;;4993680;28;20093;-69
2021/08/17 00:28:52;;;;;;;9.95;4.93;;;12.30;99.90;;;;;;5004957;28;20047;-69
2021/08/17 00:31:20;;;;;;;10.20;4.65;;;12.30;99.90;;;;;;5008337;28;20457;-68
2021/08/17 00:33:47;;;;;;;13.73;5.00;;;12.20;99.90;;;;;;5009345;28;20053;-70
2021/08/17 00:36:15;;;;;;;14.18;5.15;;;12.10;99.90;;;;;;5009766;28;20133;-68
2021/08/17 00:38:42;;;;;;;11.73;5.00;;;12.00;99.90;;;;;;5010651;28;20477;-68
2021/08/17 00:41:10;;;;;;;11.00;5.60;;;11.90;99.90;;;;;;5000033;28;20066;-69
2021/08/17 00:43:39;;;;;;;9.82;5.35;;;12.00;99.90;;;;;;5011287;28;20505;-68
2021/08/17 00:46:07;;;;;;;12.55;5.30;;;12.00;99.90;;;;;;5006739;28;20076;-69
2021/08/17 00:48:38;;;;;;;12.55;5.30;;;12.00;99.90;;;;;;5003364;28;20542;-68
2021/08/17 00:51:07;;;;;;;14.25;5.60;;;12.00;99.90;;;;;;5007904;28;20056;-68
2021/08/17 00:53:36;;;;;;;10.18;5.20;;;12.00;99.90;;;;;;5009094;28;20081;-68
2021/08/17 00:56:05;;;;;;;13.50;6.35;;;12.00;99.90;;;;;;5010907;28;20056;-68
2021/08/17 00:58:32;;;;;;;10.63;5.63;;;11.90;99.90;;;;;;5009795;28;20052;-68
2021/08/17 01:01:02;;;;;;;10.90;6.05;;;11.80;99.90;;;;;;5009637;28;20381;-68
2021/08/17 01:03:30;;;;;;;14.27;6.40;;;11.70;99.90;;;;;;4996830;28;20402;-68
2021/08/17 01:05:59;;;;;;;11.85;6.00;;;11.70;99.90;;;;;;5009821;28;20064;-68
2021/08/17 01:08:28;;;;;;;14.10;5.88;;;11.60;99.90;;;;;;5012397;28;20052;-68
2021/08/17 01:10:56;;;;;;;13.75;5.78;;;11.60;99.90;;;;;;5013549;28;20050;-69
2021/08/17 01:13:26;;;;;;;10.88;5.40;;;11.50;99.90;;;;;;5006860;28;20124;-68
2021/08/17 01:15:54;;;;;;;14.52;6.70;;;11.40;99.90;;;;;;4992813;28;20052;-68
2021/08/17 01:18:22;;;;;;;11.13;6.18;;;11.40;99.90;;;;;;5010410;28;20042;-69
2021/08/17 01:20:54;;;;;;;11.02;5.45;;;11.40;99.90;;;;;;5013021;28;20037;-69
2021/08/17 01:23:24;;;;;;;12.98;5.72;;;11.40;99.90;;;;;;5010861;28;20298;-68
2021/08/17 01:25:52;;;;;;;12.50;6.30;;;11.40;99.90;;;;;;5007677;28;20048;-68
2021/08/17 01:28:19;;;;;;;13.73;6.82;;;11.30;99.90;;;;;;5012432;28;20133;-67
2021/08/17 01:30:47;;;;;;;11.85;6.43;;;11.30;99.90;;;;;;5012083;28;20046;-68
2021/08/17 01:33:15;;;;;;;12.95;6.25;;;11.30;99.90;;;;;;5011593;28;20105;-67
2021/08/17 01:35:43;;;;;;;13.13;6.68;;;11.30;99.90;;;;;;5012079;28;20550;-68
2021/08/17 01:38:10;;;;;;;14.68;7.65;;;11.30;99.90;;;;;;5012398;28;20069;-69
2021/08/17 01:40:37;;;;;;;13.27;7.07;;;11.20;99.90;;;;;;5017168;28;20066;-68
2021/08/17 01:43:05;;;;;;;14.20;7.40;;;11.20;99.90;;;;;;5002297;28;20543;-67
2021/08/17 01:45:32;;;;;;;14.18;6.97;;;11.20;99.90;;;;;;5025140;28;20092;-67
2021/08/17 01:47:59;;;;;;;16.80;7.78;;;11.10;99.90;;;;;;5013038;28;20074;-68
2021/08/17 01:50:27;;;;;;;14.23;7.88;;;11.10;99.90;;;;;;5002836;28;20091;-68
2021/08/17 01:52:54;;;;;;;16.98;8.23;;;11.10;99.90;;;;;;5011761;28;20057;-68
2021/08/17 01:55:22;;;;;;;18.20;7.72;;;11.00;99.90;;;;;;5011851;28;20052;-67
2021/08/17 01:57:49;;;;;;;15.73;8.02;;;11.00;99.90;;;;;;5011769;28;20113;-68
2021/08/17 02:00:17;;;;;;;16.77;7.55;;;11.00;99.90;;;;;;5043466;28;20044;-68
2021/08/17 02:02:45;;;;;;;14.32;7.78;;;11.00;99.90;;;;;;5010549;28;20046;-69
2021/08/17 02:05:12;;;;;;;18.02;8.40;;;11.00;99.90;;;;;;5012194;28;20033;-67
2021/08/17 02:07:39;;;;;;;13.65;7.32;;;11.10;99.90;;;;;;5027015;28;20041;-68
2021/08/17 02:10:08;;;;;;;18.00;8.27;;;11.10;99.90;;;;;;5011805;28;20050;-68
2021/08/17 02:12:36;;;;;;;16.65;8.00;;;11.10;99.90;;;;;;4992281;28;20535;-68
2021/08/17 02:15:04;;;;;;;15.57;7.53;;;11.10;99.90;;;;;;4999204;28;20046;-68
2021/08/17 02:17:31;;;;;;;15.98;7.63;;;11.10;99.90;;;;;;5004883;28;20060;-68
2021/08/17 02:19:59;;;;;;;17.23;8.40;;;11.10;99.90;;;;;;5012335;28;20046;-70
2021/08/17 02:22:26;;;;;;;17.48;8.13;;;11.10;99.90;;;;;;5027267;28;20038;-70
2021/08/17 02:24:58;;;;;;;17.70;7.90;;;11.00;99.90;;;;;;5020845;28;20125;-70
2021/08/17 02:27:25;;;;;;;13.98;6.90;;;10.90;99.90;;;;;;5011674;28;20141;-70
2021/08/17 02:29:52;;;;;;;17.90;8.35;;;10.90;99.90;;;;;;5022641;28;20042;-70
2021/08/17 02:32:19;;;;;;;16.45;8.10;;;10.90;99.90;;;;;;5011481;28;20034;-70
2021/08/17 02:34:47;;;;;;;18.67;8.55;;;10.90;99.90;;;;;;5003238;28;20054;-71
2021/08/17 02:37:14;;;;;;;18.48;8.13;;;10.80;99.90;;;;;;5012130;28;20423;-70
2021/08/17 02:39:41;;;;;;;16.38;8.20;;;10.80;99.90;;;;;;5012159;28;20516;-69
2021/08/17 02:42:08;;;;;;;17.20;8.05;;;10.80;99.90;;;;;;5009468;28;20535;-70
2021/08/17 02:44:36;;;;;;;13.60;7.82;;;10.70;99.90;;;;;;5007574;28;20052;-70
2021/08/17 02:47:04;;;;;;;15.30;7.68;;;10.70;99.90;;;;;;5011335;28;20044;-70
2021/08/17 02:49:33;;;;;;;18.45;7.88;;;10.70;99.90;;;;;;5011499;28;20136;-70
2021/08/17 02:52:04;;;;;;;18.92;7.68;;;10.70;99.90;;;;;;5012414;28;20440;-70
2021/08/17 02:54:33;;;;;;;19.35;7.95;;;10.70;99.90;;;;;;5009225;28;20520;-70
2021/08/17 02:57:02;;;;;;;18.45;7.63;;;10.70;99.90;;;;;;5012293;28;20081;-70
2021/08/17 02:59:30;;;;;;;16.45;7.93;;;10.70;99.90;;;;;;5006381;28;20132;-70
2021/08/17 03:01:57;;;;;;;17.90;8.35;;;10.70;99.90;;;;;;5007529;28;20133;-70
2021/08/17 03:04:25;;;;;;;18.05;8.27;;;10.70;99.90;;;;;;5011815;28;20587;-70
2021/08/17 03:06:52;;;;;;;17.33;8.68;;;10.60;99.90;;;;;;5024571;28;20041;-70
2021/08/17 03:09:19;;;;;;;15.57;8.07;;;10.60;99.90;;;;;;5010526;28;20496;-70
2021/08/17 03:11:47;;;;;;;15.65;8.50;;;10.70;99.90;;;;;;5010809;28;20045;-70
2021/08/17 03:14:14;;;;;;;17.95;7.97;;;10.70;99.90;;;;;;5017387;28;20383;-69
2021/08/17 03:16:42;;;;;;;14.75;8.27;;;10.60;99.90;;;;;;5009333;28;20056;-68
2021/08/17 03:19:09;;;;;;;16.48;8.15;;;10.70;99.90;;;;;;5019509;28;20080;-67
2021/08/17 03:21:37;;;;;;;15.25;8.02;;;10.70;99.90;;;;;;5007935;28;20056;-68
2021/08/17 03:24:04;;;;;;;16.63;7.60;;;10.70;99.90;;;;;;5011048;28;20034;-68
2021/08/17 03:26:32;;;;;;;15.93;7.68;;;10.70;99.90;;;;;;5010379;28;20049;-68
2021/08/17 03:28:59;;;;;;;13.98;7.22;;;10.70;99.90;;;;;;5010138;28;20046;-68
2021/08/17 03:31:26;;;;;;;16.67;7.57;;;10.70;99.90;;;;;;5025746;28;20056;-67
2021/08/17 03:33:54;;;;;;;11.57;7.40;;;10.70;99.90;;;;;;5003016;28;20042;-67
2021/08/17 03:36:21;;;;;;;14.55;7.75;;;10.70;99.90;;;;;;5009904;28;20048;-68
2021/08/17 03:38:48;;;;;;;11.95;6.90;;;10.70;99.90;;;;;;5024301;28;20108;-68
2021/08/17 03:41:15;;;;;;;15.77;8.43;;;10.70;99.90;;;;;;5017588;28;20046;-68
2021/08/17 03:43:44;;;;;;;15.93;8.07;;;10.70;99.90;;;;;;5010881;28;20496;-68
2021/08/17 03:46:11;;;;;;;14.65;7.50;;;10.70;99.90;;;;;;5010595;28;20457;-69
2021/08/17 03:48:39;;;;;;;16.02;7.03;;;10.70;99.90;;;;;;5009699;28;20520;-68
2021/08/17 03:51:06;;;;;;;14.05;7.30;;;10.70;99.90;;;;;;5005242;28;20050;-67
2021/08/17 03:53:36;;;;;;;15.25;7.05;;;10.60;99.90;;;;;;5010178;28;20132;-68
2021/08/17 03:56:03;;;;;;;15.55;7.65;;;10.60;99.90;;;;;;5008193;28;20413;-69
2021/08/17 03:58:30;;;;;;;12.48;7.45;;;10.60;99.90;;;;;;4988891;28;20145;-69
2021/08/17 04:00:58;;;;;;;14.43;6.82;;;10.70;99.90;;;;;;5012583;28;20053;-68
2021/08/17 04:03:25;;;;;;;12.65;6.88;;;10.70;99.90;;;;;;5006586;28;20030;-69
2021/08/17 04:05:52;;;;;;;18.73;7.65;;;10.70;99.90;;;;;;5009299;28;20092;-68
2021/08/17 04:08:20;;;;;;;17.65;7.63;;;10.70;99.90;;;;;;5009006;28;20038;-69
2021/08/17 04:10:47;;;;;;;15.90;7.35;;;10.70;99.90;;;;;;5023264;28;20068;-69
2021/08/17 04:13:15;;;;;;;13.35;6.78;;;10.70;99.90;;;;;;5031221;28;20071;-69
2021/08/17 04:15:42;;;;;;;13.80;7.00;;;10.70;99.90;;;;;;5009303;28;20393;-68
2021/08/17 04:18:10;;;;;;;13.85;7.47;;;10.70;99.90;;;;;;5023989;28;20057;-69
2021/08/17 04:20:37;;;;;;;13.52;7.55;;;10.70;99.90;;;;;;4987852;28;20137;-69
2021/08/17 04:23:04;;;;;;;17.40;7.43;;;10.70;99.90;;;;;;5003056;28;20107;-69
2021/08/17 04:25:31;;;;;;;21.83;6.90;;;10.70;99.90;;;;;;5005987;28;20070;-68
2021/08/17 04:28:04;;;;;;;12.83;6.27;;;10.70;99.90;;;;;;5012829;28;20050;-69
2021/08/17 04:30:31;;;;;;;16.23;6.88;;;10.80;99.90;;;;;;5017683;28;20050;-69
2021/08/17 04:32:59;;;;;;;21.63;7.70;;;10.80;99.90;;;;;;5025688;28;20054;-69
2021/08/17 04:35:26;;;;;;;18.80;7.35;;;10.80;99.90;;;;;;4993832;28;20349;-69
2021/08/17 04:37:57;;;;;;;14.60;6.50;;;10.80;99.90;;;;;;5007662;28;20050;-70
2021/08/17 04:40:24;;;;;;;19.27;7.18;;;10.80;99.90;;;;;;5016262;28;20035;-70
2021/08/17 04:42:52;;;;;;;14.70;7.10;;;10.80;99.90;;;;;;5017606;28;20142;-70
2021/08/17 04:45:19;;;;;;;16.85;7.78;;;10.80;99.90;;;;;;5008111;28;20050;-70
2021/08/17 04:47:48;;;;;;;16.10;7.28;;;10.90;99.90;;;;;;5002943;28;20034;-70
2021/08/17 04:50:19;;;;;;;18.65;7.13;;;11.00;99.90;;;;;;5018004;28;20097;-70
2021/08/17 04:52:46;;;;;;;16.17;6.07;;;11.00;99.90;;;;;;5008557;28;20050;-70
2021/08/17 04:55:14;;;;;;;15.07;5.45;;;11.10;99.90;;;;;;5015126;28;20038;-69
2021/08/17 04:57:56;;;;;;;10.95;6.03;;;11.10;99.90;;;;;;5007335;28;20034;-68
2021/08/17 05:00:25;;;;;;;;;;;11.10;99.90;;;;;;4996692;28;20532;-68
2021/08/17 05:02:52;;;;;;;13.68;5.40;;;11.00;99.90;;;;;;5001258;28;20392;-69
2021/08/17 05:05:20;;;;;;;12.55;5.93;;;11.10;99.90;;;;;;5014799;28;20046;-69
2021/08/17 05:07:49;;;;;;;11.35;5.13;;;11.00;99.90;;;;;;5014277;28;20121;-69
2021/08/17 05:10:19;;;;;;;11.65;5.30;;;11.10;99.90;;;;;;5010382;28;20129;-69
2021/08/17 05:12:47;;;;;;;15.43;5.45;;;11.10;99.90;;;;;;5012672;28;20121;-69
2021/08/17 05:15:15;;;;;;;12.25;5.63;;;11.10;99.90;;;;;;4993493;28;20074;-69
2021/08/17 05:17:42;;;;;;;13.73;5.32;;;11.10;99.90;;;;;;5012167;28;20041;-69
2021/08/17 05:20:11;;;;;;;12.85;5.40;;;11.30;99.90;;;;;;5013364;28;20042;-69
2021/08/17 05:22:43;;;;;;;10.90;4.93;;;11.40;99.90;;;;;;5012450;28;20042;-69
2021/08/17 05:25:11;;;;;;;16.27;5.35;;;11.40;99.90;;;;;;5012600;28;20508;-68
2021/08/17 05:27:38;;;;;;;10.80;5.22;;;11.50;99.90;;;;;;5013920;28;20038;-68
2021/08/17 05:30:06;;;;;;;11.60;4.93;;;11.50;99.90;;;;;;5012563;28;20041;-68
2021/08/17 05:32:35;;;;;;;12.13;5.22;;;11.60;99.90;;;;;;5020205;28;20041;-68
2021/08/17 05:35:03;;;;;;;11.27;5.32;;;11.60;99.90;;;;;;5013817;28;20038;-68
2021/08/17 05:37:30;;;;;;;11.15;5.28;;;11.50;99.90;;;;;;5006591;28;20432;-67
2021/08/17 05:39:58;;;;;;;18.23;4.90;;;11.50;99.90;;;;;;5018664;28;20041;-68
2021/08/17 05:42:26;;;;;;;12.65;5.07;;;11.50;99.90;;;;;;5015133;28;20034;-68
2021/08/17 05:44:53;;;;;;;14.32;6.47;;;11.60;99.90;;;;;;5012564;28;20033;-68
2021/08/17 05:47:21;;;;;;;12.50;4.45;;;11.60;99.90;;;;;;5003269;28;20113;-68
2021/08/17 05:49:48;;;;;;;11.95;4.47;;;11.70;99.90;;;;;;5012077;28;20034;-68
2021/08/17 05:52:16;;;;;;;8.57;4.47;;;11.70;99.90;;;;;;5012862;28;20053;-68
2021/08/17 05:54:43;;;;;;;11.82;5.30;;;11.70;99.90;;;;;;5013331;28;20076;-69
2021/08/17 05:57:10;;;;;;;10.73;4.85;;;11.70;99.90;;;;;;5011880;28;20100;-68
2021/08/17 05:59:38;;;;;;;15.05;4.93;;;11.80;99.90;;;;;;5009844;28;20057;-68
2021/08/17 06:02:05;;;;;;;11.57;5.32;;;12.00;99.90;;;;;;5011410;28;20621;-68
2021/08/17 06:04:33;;;;;;;9.95;4.82;;;12.00;99.90;;;;;;5028007;28;20084;-68
2021/08/17 06:07:01;;;;;;;8.80;4.63;;;12.00;99.90;;;;;;5012787;28;20042;-69
2021/08/17 06:09:28;;;;;;;12.07;4.63;;;12.10;99.90;;;;;;4995360;28;20469;-68
2021/08/17 06:11:57;;;;;;;13.13;4.82;;;12.10;99.90;;;;;;5022883;28;20046;-69
2021/08/17 06:14:25;;;;;;;12.40;6.97;;;12.10;99.90;;;;;;5012806;28;20132;-68
2021/08/17 06:16:53;;;;;;;11.40;4.85;;;12.20;99.90;;;;;;4994701;28;20041;-68
2021/08/17 06:19:20;;;;;;;12.65;5.00;;;12.20;99.90;;;;;;5012445;28;20133;-68
2021/08/17 06:21:47;;;;;;;19.48;4.35;;;12.30;99.90;;;;;;5027789;28;20050;-69
2021/08/17 06:24:15;;;;;;;11.05;4.35;;;12.40;99.90;;;;;;4994178;28;20049;-68
2021/08/17 06:26:42;;;;;;;14.40;5.22;;;12.50;99.90;;;;;;5008610;28;20034;-69
2021/08/17 06:29:09;;;;;;;10.90;4.15;;;12.70;99.90;;;;;;4995210;28;20350;-69
2021/08/17 06:31:37;;;;;;;10.23;4.20;;;12.60;99.90;;;;;;5002023;28;20060;-69
2021/08/17 06:34:05;;;;;;;11.32;4.68;;;12.60;99.90;;;;;;5011433;28;20136;-69
2021/08/17 06:36:32;;;;;;;11.13;4.90;;;12.70;99.90;;;;;;5010692;28;20046;-68
2021/08/17 06:39:06;;;;;;;12.30;4.70;;;12.70;99.90;;;;;;5020210;28;20340;-69
2021/08/17 06:41:34;;;;;;;14.13;4.72;;;12.90;99.90;;;;;;5018842;28;20038;-69
2021/08/17 06:44:02;;;;;;;17.10;5.32;;;13.00;99.90;;;;;;5011460;28;20132;-69
2021/08/17 06:46:29;;;;;;;11.75;4.75;;;13.00;99.90;;;;;;5012143;28;20420;-69
2021/08/17 06:48:57;;;;;;;13.63;4.43;;;13.10;99.90;;;;;;5010524;28;20144;-69
2021/08/17 06:51:24;;;;;;;9.30;4.80;;;13.20;99.90;;;;;;5010144;28;20056;-69
2021/08/17 06:53:51;;;;;;;10.60;4.40;;;13.30;99.90;;;;;;5010489;28;20192;-69
2021/08/17 06:56:19;;;;;;;11.07;4.50;;;13.30;99.90;;;;;;5010478;28;20033;-69
2021/08/17 06:58:48;;;;;;;12.98;5.07;;;13.50;99.90;;;;;;5010166;28;20045;-69
2021/08/17 07:01:15;;;;;;;10.27;4.50;;;13.60;99.90;;;;;;5011780;28;20038;-69
2021/08/17 07:03:43;;;;;;;12.45;4.55;;;13.70;99.90;;;;;;5008223;28;20130;-69
2021/08/17 07:06:11;;;;;;;12.20;4.50;;;13.70;99.90;;;;;;5009983;28;20461;-69
2021/08/17 07:08:39;;;;;;;11.00;4.90;;;13.80;99.90;;;;;;5009630;28;20092;-68
2021/08/17 07:11:07;;;;;;;12.68;4.65;;;13.90;99.90;;;;;;5012000;28;20066;-69
2021/08/17 07:13:35;;;;;;;10.75;4.68;;;13.90;99.90;;;;;;5009817;28;20233;-69
2021/08/17 07:16:02;;;;;;;11.55;4.82;;;13.90;99.90;;;;;;5016459;28;20073;-69
2021/08/17 07:18:30;;;;;;;11.13;4.65;;;13.90;99.90;;;;;;5040050;28;20481;-69
2021/08/17 07:20:57;;;;;;;10.95;5.03;;;13.90;99.90;;;;;;5025206;28;20053;-70
2021/08/17 07:23:25;;;;;;;11.02;5.00;;;13.80;99.90;;;;;;5024755;28;20129;-69
2021/08/17 07:25:52;;;;;;;26.15;4.97;;;13.90;99.90;;;;;;5011900;28;20488;-69
2021/08/17 07:28:20;;;;;;;14.82;4.72;;;13.90;99.90;;;;;;4997552;28;20129;-68
2021/08/17 07:30:48;;;;;;;10.63;5.05;;;14.00;99.90;;;;;;5026478;28;20400;-68
2021/08/17 07:33:15;;;;;;;12.13;4.70;;;13.90;99.90;;;;;;5008351;28;20128;-69
2021/08/17 07:35:43;;;;;;;11.70;5.05;;;14.00;99.90;;;;;;5009222;28;20515;-68
2021/08/17 07:38:10;;;;;;;12.80;5.93;;;13.90;99.90;;;;;;5004765;28;20042;-69
2021/08/17 07:40:38;;;;;;;11.77;4.63;;;13.90;99.90;;;;;;5003521;28;20050;-69
2021/08/17 07:43:05;;;;;;;10.02;5.00;;;13.90;99.90;;;;;;4999046;28;20038;-69
2021/08/17 07:45:33;;;;;;;14.90;5.97;;;13.90;99.90;;;;;;4995501;28;20049;-69
2021/08/17 07:48:21;;;;;;;10.57;4.90;;;13.70;99.90;;;;;;5005345;28;20034;-69
2021/08/17 07:50:48;;;;;;;12.93;5.45;;;13.80;99.90;;;;;;4994761;28;20084;-69
2021/08/17 07:53:15;;;;;;;11.68;5.40;;;13.70;99.90;;;;;;5003667;28;20084;-69
2021/08/17 07:55:43;;;;;;;12.07;4.72;;;13.70;99.90;;;;;;5004703;28;20052;-70
2021/08/17 07:58:10;;;;;;;12.93;5.45;;;13.80;99.90;;;;;;5006366;28;20038;-70
2021/08/17 08:00:37;;;;;;;12.20;5.43;;;13.80;99.90;;;;;;5005629;28;20048;-69
2021/08/17 08:03:05;;;;;;;9.40;5.15;;;13.90;99.90;;;;;;5007773;28;20073;-69
2021/08/17 08:05:32;;;;;;;9.98;5.07;;;13.80;99.90;;;;;;5025324;28;20034;-69
2021/08/17 08:08:00;;;;;;;12.35;5.68;;;13.80;99.90;;;;;;5009565;28;20469;-69
2021/08/17 08:10:27;;;;;;;8.10;4.53;;;13.90;99.90;;;;;;5009720;28;20046;-69
2021/08/17 08:12:55;;;;;;;13.20;5.30;;;13.90;99.90;;;;;;5011031;28;20124;-69
2021/08/17 08:15:23;;;;;;;13.85;5.45;;;14.10;99.90;;;;;;5011449;28;20555;-69
2021/08/17 08:17:50;;;;;;;11.98;5.00;;;14.30;99.90;;;;;;5023315;28;20128;-69
2021/08/17 08:20:20;;;;;;;12.27;4.75;;;14.30;99.90;;;;;;5007968;28;20038;-70
2021/08/17 08:22:49;;;;;;;11.05;4.95;;;14.50;99.90;;;;;;5008856;28;20128;-70
2021/08/17 08:25:18;;;;;;;10.80;5.30;;;14.70;99.90;;;;;;5020333;28;20045;-69
2021/08/17 08:27:47;;;;;;;13.00;5.60;;;14.80;99.90;;;;;;5010146;28;20046;-69
2021/08/17 08:30:15;;;;;;;10.93;4.80;;;14.90;99.90;;;;;;5018858;28;20125;-69
2021/08/17 08:32:44;;;;;;;12.23;5.13;;;15.00;99.90;;;;;;5010331;28;20038;-69
2021/08/17 08:35:12;;;;;;;12.73;5.40;;;15.00;99.90;;;;;;5004993;28;20053;-69
2021/08/17 08:37:40;;;;;;;10.13;5.00;;;15.20;99.90;;;;;;5009772;28;20038;-69
2021/08/17 08:40:09;;;;;;;10.20;5.05;;;15.20;99.90;;;;;;5006940;28;20601;-69
2021/08/17 08:42:37;;;;;;;14.02;5.93;;;15.20;99.90;;;;;;4995076;28;20048;-69
2021/08/17 08:45:05;;;;;;;11.15;5.65;;;15.30;99.90;;;;;;5020176;28;20096;-69
2021/08/17 08:47:36;;;;;;;11.30;5.60;;;15.30;99.90;;;;;;4990526;28;20046;-69
2021/08/17 08:50:04;;;;;;;12.00;5.63;;;15.40;99.90;;;;;;5033730;28;20054;-69
2021/08/17 08:52:32;;;;;;;12.35;5.20;;;15.50;99.90;;;;;;4995068;28;20684;-69
2021/08/17 08:55:02;;;;;;;12.23;5.00;;;15.70;99.90;;;;;;5001137;28;20149;-69
2021/08/17 08:57:30;;;;;;;10.90;5.50;;;15.60;99.90;;;;;;5011319;28;20457;-69
2021/08/17 08:59:58;;;;;;;10.23;5.32;;;15.60;99.90;;;;;;5009566;28;20077;-70
2021/08/17 09:02:30;;;;;;;11.25;5.70;;;15.70;99.90;;;;;;5009486;28;20044;-69
2021/08/17 09:05:00;;;;;;;13.48;5.78;;;15.70;99.90;;;;;;5010274;28;20077;-70
2021/08/17 09:07:39;;;;;;;12.48;5.57;;;15.60;99.90;;;;;;4989588;28;20536;-69
2021/08/17 09:10:16;;;;;;;11.50;5.03;;;15.40;99.90;;;;;;5010083;28;20042;-69
2021/08/17 09:12:46;;;;;;;9.98;5.45;;;15.00;99.90;;;;;;5009798;28;20042;-69
2021/08/17 09:15:26;;;;;;;13.25;5.40;;;14.70;99.90;;;;;;5010756;28;20050;-69
2021/08/17 09:18:03;;;;;;;11.93;5.60;;;14.60;99.90;;;;;;5023751;28;20084;-69
2021/08/17 09:20:36;;;;;;;13.38;5.10;;;14.60;99.90;;;;;;4997593;28;20046;-69
2021/08/17 09:23:22;;;;;;;8.82;4.82;;;14.60;99.90;;;;;;5006563;28;20568;-69
2021/08/17 09:25:51;;;;;;;8.70;4.80;;;14.70;99.90;;;;;;5008974;28;20038;-69
2021/08/17 09:28:25;;;;;;;11.20;5.35;;;14.70;99.90;;;;;;5014311;28;20066;-69
2021/08/17 09:30:52;;;;;;;11.68;5.95;;;14.70;99.90;;;;;;5014734;28;20140;-69
2021/08/17 09:33:20;;;;;;;10.30;5.47;;;14.70;99.90;;;;;;5012964;28;20100;-69
2021/08/17 09:35:54;;;;;;;9.35;5.38;;;14.70;99.90;;;;;;5000662;28;20111;-68
2021/08/17 09:38:29;;;;;;;11.88;5.82;;;14.80;99.90;;;;;;5041125;28;20037;-69
2021/08/17 09:41:17;;;;;;;13.35;5.38;;;14.80;99.90;;;;;;5005226;28;20105;-69
2021/08/17 09:43:59;;;;;;;12.27;5.88;;;14.90;99.90;;;;;;5003687;28;20480;-70
2021/08/17 09:46:47;;;;;;;10.80;6.07;;;15.00;99.90;;;;;;5011415;28;20052;-69
2021/08/17 09:49:21;;;;;;;12.32;5.63;;;15.10;99.90;;;;;;5007908;28;20085;-69
2021/08/17 09:51:49;;;;;;;15.13;5.85;;;15.10;99.90;;;;;;5000831;28;20429;-69
2021/08/17 09:54:20;;;;;;;10.45;5.20;;;15.20;99.90;;;;;;5012678;28;20045;-69
2021/08/17 09:57:03;;;;;;;13.30;5.68;;;15.30;99.90;;;;;;5011912;28;20042;-69
2021/08/17 09:59:33;;;;;;;12.02;6.15;;;15.40;99.90;;;;;;5011772;28;20128;-69
2021/08/17 10:02:01;;;;;;;10.45;5.45;;;15.70;99.90;;;;;;5007285;28;20119;-69
2021/08/17 10:04:29;;;;;;;10.43;5.00;;;16.10;99.90;;;;;;5037914;28;20053;-68
2021/08/17 10:06:59;;;;;;;10.82;5.10;;;16.40;99.90;;;;;;5011395;28;20045;-69
2021/08/17 10:09:29;;;;;;;10.52;5.25;;;16.60;99.90;;;;;;5012393;28;20096;-69
2021/08/17 10:12:01;;;;;;;9.98;5.22;;;16.70;99.90;;;;;;5010032;28;20061;-69
2021/08/17 10:14:30;;;;;;;9.57;4.97;;;16.80;99.90;;;;;;5010827;28;20038;-69
2021/08/17 10:16:58;;;;;;;9.82;5.50;;;17.00;99.90;;;;;;5008937;28;20049;-69
2021/08/17 10:19:28;;;;;;;9.23;5.38;;;16.80;99.90;;;;;;5006907;28;20050;-69
2021/08/17 10:21:59;;;;;;;11.98;5.60;;;16.50;99.90;;;;;;5010757;28;20042;-68
2021/08/17 10:24:40;;;;;;;16.70;5.15;;;16.70;99.90;;;;;;5011327;28;20480;-68
2021/08/17 10:27:26;;;;;;;11.95;4.80;;;16.60;99.90;;;;;;5013187;28;20476;-69
2021/08/17 10:29:56;;;;;;;10.05;5.03;;;16.50;99.90;;;;;;5008690;28;20081;-69
2021/08/17 10:32:46;;;;;;;11.55;4.70;;;16.70;99.90;;;;;;5010280;28;20046;-69
2021/08/17 10:35:26;;;;;;;9.85;4.90;;;17.20;99.90;;;;;;5021533;28;20050;-68
2021/08/17 10:38:07;;;;;;;12.65;5.40;;;17.70;99.90;;;;;;5026234;28;20046;-69
2021/08/17 10:40:52;;;;;;;9.60;5.10;;;17.70;99.90;;;;;;5004702;28;20046;-70
2021/08/17 10:43:32;;;;;;;9.30;5.15;;;17.70;99.90;;;;;;5011086;28;20834;-69
2021/08/17 10:46:04;;;;;;;9.10;4.63;;;17.70;99.90;;;;;;5028029;28;20044;-69
2021/08/17 10:48:44;;;;;;;7.72;4.95;;;17.70;99.90;;;;;;5006539;28;20050;-68
2021/08/17 10:51:17;;;;;;;9.57;4.93;;;17.70;99.90;;;;;;5008910;28;20128;-68
2021/08/17 10:53:50;;;;;;;7.57;4.28;;;17.60;99.90;;;;;;5022606;28;20077;-70
2021/08/17 10:56:19;;;;;;;8.48;4.47;;;17.80;99.90;;;;;;5017886;28;20080;-70
2021/08/17 10:58:49;;;;;;;10.90;4.78;;;18.30;99.90;;;;;;5010510;28;20140;-71
2021/08/17 11:01:36;;;;;;;9.60;4.53;;;18.50;99.90;;;;;;5043278;28;20041;-69
2021/08/17 11:04:12;;;;;;;10.45;4.43;;;18.50;99.90;;;;;;5017609;28;20042;-69
2021/08/17 11:06:43;;;;;;;8.57;4.78;;;18.40;99.90;;;;;;5027212;28;20038;-67
2021/08/17 11:09:17;;;;;;;10.98;5.43;;;18.30;99.90;;;;;;5011461;28;20100;-67
2021/08/17 11:11:48;;;;;;;11.23;6.15;;;18.30;99.90;;;;;;5011267;28;20046;-67
2021/08/17 11:14:20;;;;;;;9.65;5.65;;;18.40;99.90;;;;;;5010221;28;20077;-68
2021/08/17 11:16:53;;;;;;;10.07;5.30;;;18.60;99.90;;;;;;5009920;28;20046;-67
2021/08/17 11:19:24;;;;;;;9.85;4.70;;;18.70;99.90;;;;;;5010306;28;20088;-70
2021/08/17 11:21:58;;;;;;;9.52;5.22;;;18.90;99.90;;;;;;5007935;28;20076;-69
2021/08/17 11:24:25;;;;;;;9.60;5.07;;;18.90;99.90;;;;;;5009657;28;20396;-68
2021/08/17 11:27:06;;;;;;;10.95;4.75;;;18.40;99.90;;;;;;5005491;28;20046;-69
2021/08/17 11:29:48;;;;;;;12.23;6.15;;;18.30;99.90;;;;;;4998539;28;20128;-69
2021/08/17 11:32:36;;;;;;;8.82;5.32;;;18.50;99.90;;;;;;5009640;28;20472;-69
2021/08/17 11:35:15;;;;;;;9.20;5.00;;;18.70;99.90;;;;;;5002042;28;20046;-69
2021/08/17 11:37:44;;;;;;;11.52;5.00;;;18.80;99.90;;;;;;5003260;28;20048;-68
2021/08/17 11:40:14;;;;;;;8.38;4.70;;;18.50;99.90;;;;;;5011362;28;20060;-68
2021/08/17 11:42:44;;;;;;;9.20;5.28;;;18.40;99.90;;;;;;5011085;28;20096;-68
2021/08/17 11:45:22;;;;;;;11.77;4.90;;;18.20;99.90;;;;;;5015495;28;20046;-69
2021/08/17 11:47:51;;;;;;;9.77;5.13;;;18.00;99.90;;;;;;5013905;28;20469;-69
2021/08/17 11:50:22;;;;;;;8.32;4.88;;;18.10;99.90;;;;;;5005546;28;20042;-70
2021/08/17 11:52:55;;;;;;;10.40;4.97;;;18.00;99.90;;;;;;5006127;28;20054;-69
2021/08/17 11:55:28;;;;;;;9.38;4.50;;;18.00;99.90;;;;;;5010922;28;20108;-69
2021/08/17 11:58:01;;;;;;;10.80;4.80;;;18.20;99.90;;;;;;5011321;28;20473;-70
2021/08/17 12:00:30;;;;;;;9.88;5.30;;;18.30;99.90;;;;;;5010213;28;20129;-70
2021/08/17 12:03:08;;;;;;;9.93;5.05;;;18.30;99.90;;;;;;5008881;28;20049;-70
2021/08/17 12:05:38;;;;;;;9.43;5.20;;;18.40;99.90;;;;;;4997071;28;20046;-69
2021/08/17 12:08:10;;;;;;;12.93;6.05;;;18.50;99.90;;;;;;4997544;28;20111;-68
2021/08/17 12:10:39;;;;;;;;;;;18.40;99.90;;;;;;5004906;28;20068;-69
2021/08/17 12:13:14;;;;;;;10.27;5.72;;;18.30;99.90;;;;;;5025153;28;19961;-68
2021/08/17 12:15:56;;;;;;;10.90;5.50;;;18.30;99.90;;;;;;5011198;28;20200;-68
2021/08/17 12:18:32;;;;;;;9.90;5.68;;;18.40;99.90;;;;;;5028346;28;20042;-69
2021/08/17 12:21:04;;;;;;;11.82;6.10;;;18.40;99.90;;;;;;5009075;28;20060;-69
2021/08/17 12:23:43;;;;;;;10.38;5.38;;;18.80;99.90;;;;;;5004737;28;20496;-68
2021/08/17 12:26:14;;;;;;;12.50;5.63;;;18.80;99.90;;;;;;5004879;28;20117;-69
2021/08/17 12:28:44;;;;;;;7.93;4.70;;;18.50;99.90;;;;;;5005816;28;20072;-68
2021/08/17 12:31:25;;;;;;;11.20;4.97;;;18.10;99.90;;;;;;5001993;28;20041;-69
2021/08/17 12:33:58;;;;;;;11.02;6.10;;;17.90;99.90;;;;;;5009285;28;20125;-69
2021/08/17 12:36:40;;;;;;;10.45;5.72;;;17.80;99.90;;;;;;5010630;28;20535;-68
2021/08/17 12:39:09;;;;;;;11.23;6.03;;;17.60;99.90;;;;;;5009993;28;20506;-68
2021/08/17 12:41:38;;;;;;;11.68;6.15;;;17.50;99.90;;;;;;5015873;28;20081;-69
2021/08/17 12:44:22;;;;;;;8.82;5.68;;;17.50;99.90;;;;;;5007892;28;20046;-69
2021/08/17 12:47:00;;;;;;;12.30;6.25;;;17.40;99.90;;;;;;5018996;28;20637;-68
2021/08/17 12:49:45;;;;;;;14.48;6.95;;;17.40;99.90;;;;;;5007203;28;20069;-69
2021/08/17 12:52:35;;;;;;;10.27;5.80;;;17.20;99.90;;;;;;5002475;28;20050;-68